Latest Coastal Weather Observations for Port Hedland

IDW60701

Issued at 4:12 pm WST Sunday 26 June 2016 (issued every 10 minutes, with the page automatically refreshed every 10 minutes)

About coastal observations | Map of coastal stations | Coastal observations for WA | Marine services | Other Formats
Station Details ID: 004032 Name: PORT HEDLAND AIRPORT Lat: -20.37 Lon: 118.63 Height: 6.4 m
Data from the previous 72 hours. | See also: Recent months at Port Hedland
Date/Time
WST
Temp
°C
Wind Pressure Rain since
9am
mm
Weather Cloud Vis
km
Sea
Height
m
Swell
Dir  Spd
kts
Gust
kts
hPa Trend Height
m
Period
s
Dir
26/04:00pm 25.3 ESE 12 17 1015.7 - 0.0 - - 10 - - - -
26/03:30pm 25.8 ESE 12 18 1015.5 - 0.0 - - 10 - - - -
26/03:00pm 25.7 ESE 13 18 1015.6 - 0.0 - - 10 - - - -
26/02:30pm 25.6 E 15 20 1015.8 - 0.0 - - 10 - - - -
26/02:00pm 24.9 SE 12 19 1015.8 - 0.0 - - 10 - - - -
26/01:30pm 24.5 ESE 14 19 1015.9 - 0.0 - - 10 - - - -
26/01:00pm 24.1 SE 14 21 1016.2 - 0.0 - - 10 - - - -
26/12:30pm 23.4 SE 15 24 1016.6 - 0.0 - - 10 - - - -
26/12:00pm 22.9 ESE 16 26 1016.9 - 0.0 - - 10 - - - -
26/11:54am 23.0 ESE 15 26 1017.0 - 0.0 - - 10 - - - -
26/11:30am 22.3 SSE 16 22 1017.5 - 0.0 - - 10 - - - -
26/11:02am 21.9 ESE 18 28 1017.9 - 0.0 - - 10 - - - -
26/11:00am 21.5 ESE 19 28 1017.9 - 0.0 - - 10 - - - -
26/10:58am 21.6 ESE 18 28 1017.9 - 0.0 - - 10 - - - -
26/10:30am 21.4 ESE 21 28 1018.2 - 0.0 - - 10 - - - -
26/10:00am 21.2 ESE 20 28 1018.2 - 0.0 - - 10 - - - -
26/09:30am 20.2 ESE 21 29 1018.4 - 0.0 - - 10 - - - -
26/09:00am 19.6 ESE 21 31 1018.6 - 0.2 - - 10 - - - -
26/08:30am 18.8 ESE 18 26 1018.6 - 0.2 - - 10 - - - -
26/08:00am 17.9 SE 15 21 1018.6 - 0.2 - - 10 - - - -
26/07:30am 17.2 SE 11 15 1018.4 - 0.2 - - 10 - - - -
26/07:00am 16.6 SE 11 15 1018.1 - 0.2 - - 10 - - - -
26/06:30am 16.5 SE 11 16 1017.7 - 0.2 - - 10 - - - -
26/06:00am 16.9 SE 13 17 1017.5 - 0.2 - - 10 - - - -
26/05:30am 17.3 SE 12 19 1017.4 - 0.2 - - 10 - - - -
26/05:00am 17.2 SE 10 14 1017.3 - 0.2 - - 10 - - - -
26/04:30am 17.2 SSE 9 12 1017.3 - 0.2 - - 10 - - - -
26/04:00am 17.2 SSE 8 10 1017.3 - 0.2 - - 10 - - - -
26/03:30am 17.9 SE 9 11 1017.1 - 0.2 - - 10 - - - -
26/03:00am 18.5 SE 10 15 1017.1 - 0.2 - - 10 - - - -
26/02:30am 18.9 SE 10 16 1017.0 - 0.2 - - 10 - - - -
26/02:00am 19.3 SE 10 13 1017.1 - 0.2 - Partly cloudy 10 - - - -
26/01:30am 19.9 SE 10 15 1017.2 - 0.2 - Partly cloudy 10 - - - -
26/01:00am 20.3 SE 11 14 1017.1 - 0.2 - Cloudy 10 - - - -
26/12:30am 20.5 SE 9 14 1017.1 - 0.2 - Partly cloudy 10 - - - -
26/12:00am 20.6 SE 11 14 1016.8 - 0.2 - Partly cloudy 10 - - - -
 
Date/Time
WST
Temp
°C
Wind Pressure Rain since
9am
mm
Weather Cloud Vis
km
Sea
Height
m
Swell
Dir  Spd
kts
Gust
kts
hPa Trend Height
m
Period
s
Dir
25/11:30pm 20.7 SE 10 14 1016.6 - 0.2 - Partly cloudy 10 - - - -
25/11:00pm 21.0 SE 10 14 1016.6 - 0.2 - Partly cloudy 10 - - - -
25/10:30pm 21.4 SE 10 15 1016.6 - 0.2 - Partly cloudy 10 - - - -
25/10:00pm 21.9 SE 11 15 1016.4 - 0.2 - Partly cloudy 10 - - - -
25/09:30pm 22.0 SE 8 12 1016.1 - 0.2 - Partly cloudy 10 - - - -
25/09:00pm 22.3 SE 9 13 1015.9 - 0.2 - Partly cloudy 10 - - - -
25/08:30pm 22.4 SSE 7 11 1015.6 - 0.2 - Partly cloudy 10 - - - -
25/08:00pm 22.5 SSE 5 6 1015.4 - 0.2 - - 10 - - - -
25/07:30pm 22.8 SSE 5 6 1015.1 - 0.2 - - 10 - - - -
25/07:00pm 23.1 SSE 6 7 1014.6 - 0.2 - Partly cloudy 10 - - - -
25/06:30pm 23.3 SSE 7 9 1014.4 - 0.2 - Partly cloudy 10 - - - -
25/06:00pm 24.1 S 9 11 1014.1 - 0.2 - Partly cloudy 10 - - - -
25/05:30pm 24.6 SSW 9 12 1013.6 - 0.2 - Partly cloudy 10 - - - -
25/05:00pm 25.3 SSW 7 9 1012.9 - 0.2 - Partly cloudy 10 - - - -
25/04:30pm 25.5 S 6 8 1012.7 - 0.2 - Cloudy 10 - - - -
25/04:00pm 25.5 SSW 8 11 1012.7 - 0.2 - Partly cloudy 10 - - - -
25/03:30pm 26.0 S 8 11 1012.5 - 0.2 - Partly cloudy 10 - - - -
25/03:00pm 25.5 S 7 11 1012.5 - 0.2 - Mostly cloudy 10 - - - -
25/02:30pm 25.1 S 9 13 1012.7 - 0.2 - Partly cloudy 10 - - - -
25/02:00pm 25.0 S 9 13 1012.9 - 0.2 - Partly cloudy 10 - - - -
25/01:30pm 24.4 S 9 15 1013.3 - 0.2 - Partly cloudy 10 - - - -
25/01:00pm 22.9 S 9 13 1013.7 - 0.2 - Partly cloudy 10 - - - -
25/12:40pm 21.6 S 8 11 1014.2 - 0.2 - Partly cloudy 10 - - - -
25/12:30pm 21.1 S 9 12 1014.3 - 0.2 - Partly cloudy 10 - - - -
25/12:24pm 21.3 S 10 13 1014.4 - 0.2 - Partly cloudy 10 - - - -
25/12:00pm 21.4 S 10 13 1014.8 - 0.2 - Cloudy 10 - - - -
25/11:30am 20.8 S 10 13 1014.8 - 0.2 - Cloudy 10 - - - -
25/11:00am 20.4 S 8 10 1015.3 - 0.2 - Partly cloudy 10 - - - -
25/10:30am 20.3 SSE 7 9 1015.2 - 0.2 - Partly cloudy 10 - - - -
25/10:26am 20.2 SSE 6 8 1015.2 - 0.2 - Partly cloudy 10 - - - -
25/10:07am 19.5 SSE 6 8 1015.3 - 0.2 - Partly cloudy 6 - - - -
25/10:00am 19.7 SE 6 8 1015.4 - 0.0 - Partly cloudy 10 - - - -
25/09:30am 19.4 SSE 7 9 1015.6 - 0.0 - Partly cloudy 4 - - - -
25/09:15am 19.3 SSE 8 11 1015.6 - 0.0 - Cloudy 6 - - - -
25/09:00am 19.8 SSE 7 9 1015.3 - 3.2 - Cloudy 10 - - - -
25/08:30am 19.5 ESE 7 9 1014.9 - 3.2 - Cloudy 10 - - - -
25/08:00am 18.9 ESE 9 11 1014.4 - 3.2 - Partly cloudy 10 - - - -
25/07:54am 18.9 ESE 9 11 1014.3 - 3.2 - Partly cloudy 10 - - - -
25/07:30am 18.9 ESE 7 9 1014.4 - 3.0 - Partly cloudy 6 - - - -
25/07:02am 19.4 SE 4 5 1014.4 - 2.8 - Partly cloudy 6 - - - -
25/07:00am 19.3 SSE 4 5 1014.4 - 2.8 - Partly cloudy 7 - - - -
25/06:58am 19.3 SSE 4 5 1014.4 - 2.8 - Partly cloudy 8 - - - -
25/06:37am 19.6 SW 3 5 1014.1 - 2.4 - Cloudy 6 - - - -
25/06:30am 19.8 SSW 4 5 1014.0 - 2.0 - Cloudy 10 - - - -
25/06:00am 19.8 SE 5 6 1013.4 - 2.0 - Cloudy 10 - - - -
25/05:30am 19.7 SSE 4 6 1013.3 - 2.0 - Partly cloudy 10 - - - -
25/05:00am 19.7 SSE 6 8 1013.1 - 2.0 - Cloudy 10 - - - -
25/04:30am 19.5 SSE 8 10 1013.2 - 2.0 - Partly cloudy 10 - - - -
25/04:00am 19.5 SSE 9 11 1012.8 - 2.0 - Partly cloudy 10 - - - -
25/03:30am 19.8 S 8 11 1013.1 - 2.0 - Partly cloudy 10 - - - -
25/03:00am 19.8 S 9 12 1013.3 - 1.8 - Cloudy 10 - - - -
25/02:54am 19.9 S 9 12 1013.4 - 1.8 - Partly cloudy 10 - - - -
25/02:38am 20.2 S 9 12 1013.5 - 1.6 - Partly cloudy 6 - - - -
25/02:30am 20.6 SSW 7 10 1013.6 - 1.0 - Partly cloudy 10 - - - -
25/02:17am 21.0 SSW 7 9 1013.4 - 0.6 - Partly cloudy 6 - - - -
25/02:00am 21.6 S 6 7 1013.3 - 0.2 - Partly cloudy 10 - - - -
25/01:30am 21.8 S 6 7 1013.6 - 0.2 - Partly cloudy 10 - - - -
25/01:00am 21.6 SSW 5 6 1013.6 - 0.2 - Partly cloudy 10 - - - -
25/12:30am 21.7 SSW 6 7 1013.7 - 0.2 - Partly cloudy 10 - - - -
25/12:00am 21.6 CALM 0 0 1013.8 - 0.2 - Cloudy 10 - - - -
 
Date/Time
WST
Temp
°C
Wind Pressure Rain since
9am
mm
Weather Cloud Vis
km
Sea
Height
m
Swell
Dir  Spd
kts
Gust
kts
hPa Trend Height
m
Period
s
Dir
24/11:30pm 21.3 NW 1 3 1013.8 - 0.2 - Cloudy 10 - - - -
24/11:00pm 21.2 N 4 5 1013.9 - 0.2 - Cloudy 10 - - - -
24/10:30pm 20.9 CALM 0 0 1014.0 - 0.2 - - 10 - - - -
24/10:00pm 21.2 CALM 0 0 1014.0 - 0.2 - - 10 - - - -
24/09:30pm 21.4 CALM 0 0 1014.0 - 0.2 - - 10 - - - -
24/09:00pm 21.6 CALM 0 0 1014.0 - 0.2 - - 10 - - - -
24/08:30pm 21.9 CALM 0 0 - - 0.2 - - 10 - - - -
24/08:00pm 22.2 CALM 0 0 1013.8 - 0.2 - - 10 - - - -
24/07:30pm 22.4 WNW 3 3 1013.8 - 0.2 - Partly cloudy 10 - - - -
24/07:00pm 22.6 N 3 4 1013.5 - 0.2 - Cloudy 10 - - - -
24/06:30pm 22.9 N 5 6 1013.2 - 0.2 - - 10 - - - -
24/06:00pm 22.9 N 4 5 1013.2 - 0.2 - Mostly clear 10 - - - -
24/05:30pm 23.8 NNW 3 4 1013.0 - 0.2 - Partly cloudy 10 - - - -
24/05:00pm 24.6 N 4 6 1012.8 - 0.2 - Cloudy 10 - - - -
24/04:30pm 25.5 N 5 6 1012.7 - 0.2 - Partly cloudy 10 - - - -
24/04:00pm 24.7 N 7 8 1012.6 - 0.2 - Cloudy 10 - - - -
24/03:30pm 25.5 N 6 8 1012.4 - 0.2 - Cloudy 10 - - - -
24/03:00pm 25.6 N 5 7 1012.3 - 0.2 - Cloudy 10 - - - -
24/02:30pm 25.9 ENE 6 8 1012.3 - 0.2 - Cloudy 10 - - - -
24/02:00pm 25.5 NE 7 10 1012.6 - 0.2 - Cloudy 10 - - - -
24/01:30pm 25.5 ENE 10 13 1012.7 - 0.2 - Partly cloudy 10 - - - -
24/01:00pm 25.8 ENE 12 15 1012.8 - 0.2 - Cloudy 10 - - - -
24/12:30pm 25.0 ENE 11 14 1013.3 - 0.2 - - 10 - - - -
24/12:00pm 24.1 ENE 12 16 1014.0 - 0.2 - Partly cloudy 10 - - - -
24/11:30am 23.1 ENE 11 14 1014.5 - 0.2 - Partly cloudy 10 - - - -
24/11:00am 21.7 ESE 12 16 1014.9 - 0.2 - Partly cloudy 10 - - - -
24/10:30am 20.3 ESE 11 17 1015.1 - 0.2 - Partly cloudy 10 - - - -
24/10:00am 19.5 ESE 11 15 1015.6 - 0.2 - Partly cloudy 10 - - - -
24/09:30am 19.0 ESE 10 14 1015.8 - 0.0 - Cloudy 10 - - - -
24/09:00am 18.9 SE 9 13 1016.4 - 2.4 - Cloudy 9 - - - -
24/08:30am 19.0 SE 10 13 1016.1 - 2.4 - Cloudy 10 - - - -
24/08:00am 18.6 ESE 9 14 1015.6 - 2.4 - Cloudy 10 - - - -
24/07:30am 18.3 ESE 8 10 1015.6 - 2.4 - Cloudy 10 - - - -
24/07:00am 18.1 SE 8 11 1015.2 - 2.0 - Cloudy 9 - - - -
24/06:30am 18.3 ESE 6 9 1014.9 - 1.4 - Partly cloudy 9 - - - -
24/06:00am 18.4 ESE 7 10 1014.5 - 1.0 - Cloudy 10 - - - -
24/05:30am 18.7 SE 6 8 1014.4 - 0.8 - Partly cloudy 8 - - - -
24/05:00am 18.9 ESE 5 7 1014.2 - 0.8 - Partly cloudy 10 - - - -
24/04:30am 19.0 ESE 8 11 1014.1 - 0.6 - Partly cloudy 10 - - - -
24/04:00am 19.0 SE 8 11 1014.2 - 0.6 - Cloudy 10 - - - -
24/03:30am 18.9 SE 7 10 1014.4 - 0.6 - Cloudy 8 - - - -
24/03:00am 18.9 SE 9 11 1014.5 - 0.2 - Mostly cloudy 8 - - - -
24/02:30am 19.6 SE 8 12 1014.4 - 0.0 - Cloudy 10 - - - -
24/02:00am 20.2 SE 9 13 1014.5 - 0.0 - Cloudy 10 - - - -
24/01:30am 20.3 SE 10 13 1014.7 - 0.0 - Cloudy 10 - - - -
24/01:00am 20.4 SSE 10 13 1014.8 - 0.0 - Partly cloudy 10 - - - -
24/12:30am 20.6 SSE 10 13 1014.8 - 0.0 - Partly cloudy 10 - - - -
24/12:00am 20.7 SSE 11 14 1014.8 - 0.0 - Cloudy 10 - - - -
 
Date/Time
WST
Temp
°C
Wind Pressure Rain since
9am
mm
Weather Cloud Vis
km
Sea
Height
m
Swell
Dir  Spd
kts
Gust
kts
hPa Trend Height
m
Period
s
Dir
23/11:30pm 20.9 SE 7 9 1014.7 - 0.0 - Partly cloudy 10 - - - -
23/11:00pm 20.7 SSE 9 11 1014.7 - 0.0 - Partly cloudy 10 - - - -
23/10:30pm 21.0 SSE 7 9 1014.8 - 0.0 - Partly cloudy 10 - - - -
23/10:00pm 21.2 SSE 9 11 1014.7 - 0.0 - Partly cloudy 10 - - - -
23/09:30pm 21.5 SSE 10 14 1014.3 - 0.0 - Cloudy 10 - - - -
23/09:00pm 21.8 S 7 9 1014.2 - 0.0 - Cloudy 10 - - - -
23/08:30pm 21.9 S 7 9 1014.1 - 0.0 - Cloudy 10 - - - -
23/08:00pm 22.5 SSE 6 8 1013.7 - 0.0 - Cloudy 10 - - - -
23/07:30pm 22.5 SSE 7 10 1013.6 - 0.0 - Cloudy 10 - - - -
23/07:00pm 22.5 SSE 9 12 1013.4 - 0.0 - Partly cloudy 10 - - - -
23/06:30pm 22.5 SSE 8 11 1013.2 - 0.0 - Cloudy 10 - - - -
23/06:00pm 22.6 SSE 9 13 1012.9 - 0.0 - Cloudy 10 - - - -
23/05:30pm 22.7 SSE 9 12 1012.5 - 0.0 - Cloudy 10 - - - -
23/05:00pm 22.9 SE 9 13 1012.4 - 0.0 - Partly cloudy 10 - - - -
23/04:30pm 23.0 SE 10 14 1012.2 - 0.0 - Cloudy 10 - - - -

Other Formats:

Comma delimited format used in spreadsheet applications
http://www.bom.gov.au/fwo/IDW60701/IDW60701.94312.axf

JavaScript Object Notation format (JSON) in row-major order
http://www.bom.gov.au/fwo/IDW60701/IDW60701.94312.json